sensor_id;sensor_type;location;lat;lon;timestamp;P1;durP1;ratioP1;P2;durP2;ratioP2
68583;SDS011;55557;49.220;11.150;2023-03-12T00:02:12;4.53;;;3.50;;
68583;SDS011;55557;49.220;11.150;2023-03-12T00:04:38;7.57;;;3.60;;
68583;SDS011;55557;49.220;11.150;2023-03-12T00:07:04;8.73;;;3.43;;
68583;SDS011;55557;49.220;11.150;2023-03-12T00:09:36;5.87;;;3.20;;
68583;SDS011;55557;49.220;11.150;2023-03-12T00:12:02;7.00;;;3.43;;
68583;SDS011;55557;49.220;11.150;2023-03-12T00:14:28;9.23;;;4.10;;
68583;SDS011;55557;49.220;11.150;2023-03-12T00:16:54;10.97;;;3.50;;
68583;SDS011;55557;49.220;11.150;2023-03-12T00:19:20;9.10;;;3.97;;
68583;SDS011;55557;49.220;11.150;2023-03-12T00:21:47;5.00;;;3.63;;
68583;SDS011;55557;49.220;11.150;2023-03-12T00:24:13;5.50;;;4.20;;
68583;SDS011;55557;49.220;11.150;2023-03-12T00:26:41;6.20;;;4.10;;
68583;SDS011;55557;49.220;11.150;2023-03-12T00:29:10;5.20;;;3.53;;
68583;SDS011;55557;49.220;11.150;2023-03-12T00:31:36;5.37;;;3.57;;
68583;SDS011;55557;49.220;11.150;2023-03-12T00:34:02;4.73;;;3.27;;
68583;SDS011;55557;49.220;11.150;2023-03-12T00:36:29;4.63;;;3.47;;
68583;SDS011;55557;49.220;11.150;2023-03-12T00:38:56;6.50;;;4.57;;
68583;SDS011;55557;49.220;11.150;2023-03-12T00:41:22;5.37;;;3.50;;
68583;SDS011;55557;49.220;11.150;2023-03-12T00:43:49;6.07;;;3.87;;
68583;SDS011;55557;49.220;11.150;2023-03-12T00:46:15;6.10;;;4.30;;
68583;SDS011;55557;49.220;11.150;2023-03-12T00:48:41;5.13;;;3.50;;
68583;SDS011;55557;49.220;11.150;2023-03-12T00:51:07;5.83;;;3.53;;
68583;SDS011;55557;49.220;11.150;2023-03-12T00:53:34;4.77;;;4.10;;
68583;SDS011;55557;49.220;11.150;2023-03-12T00:56:00;5.83;;;3.37;;
68583;SDS011;55557;49.220;11.150;2023-03-12T00:58:26;5.13;;;3.47;;
68583;SDS011;55557;49.220;11.150;2023-03-12T01:00:52;5.10;;;3.43;;
68583;SDS011;55557;49.220;11.150;2023-03-12T01:03:18;5.27;;;3.70;;
68583;SDS011;55557;49.220;11.150;2023-03-12T01:05:44;7.20;;;3.87;;
68583;SDS011;55557;49.220;11.150;2023-03-12T01:08:10;5.43;;;3.63;;
68583;SDS011;55557;49.220;11.150;2023-03-12T01:10:39;5.97;;;4.00;;
68583;SDS011;55557;49.220;11.150;2023-03-12T01:13:05;11.07;;;4.10;;
68583;SDS011;55557;49.220;11.150;2023-03-12T01:15:31;6.33;;;4.30;;
68583;SDS011;55557;49.220;11.150;2023-03-12T01:17:57;5.10;;;3.83;;
68583;SDS011;55557;49.220;11.150;2023-03-12T01:20:23;4.80;;;3.73;;
68583;SDS011;55557;49.220;11.150;2023-03-12T01:22:50;6.73;;;3.53;;
68583;SDS011;55557;49.220;11.150;2023-03-12T01:25:16;5.20;;;4.07;;
68583;SDS011;55557;49.220;11.150;2023-03-12T01:27:42;6.97;;;3.97;;
68583;SDS011;55557;49.220;11.150;2023-03-12T01:30:08;4.47;;;3.50;;
68583;SDS011;55557;49.220;11.150;2023-03-12T01:32:34;6.33;;;3.83;;
68583;SDS011;55557;49.220;11.150;2023-03-12T01:35:01;7.20;;;3.83;;
68583;SDS011;55557;49.220;11.150;2023-03-12T01:37:27;7.10;;;4.23;;
68583;SDS011;55557;49.220;11.150;2023-03-12T01:39:53;5.63;;;4.77;;
68583;SDS011;55557;49.220;11.150;2023-03-12T01:42:19;7.20;;;4.53;;
68583;SDS011;55557;49.220;11.150;2023-03-12T01:44:55;5.23;;;3.50;;
68583;SDS011;55557;49.220;11.150;2023-03-12T01:47:22;5.10;;;4.20;;
68583;SDS011;55557;49.220;11.150;2023-03-12T01:49:48;7.23;;;3.90;;
68583;SDS011;55557;49.220;11.150;2023-03-12T01:52:16;7.03;;;4.43;;
68583;SDS011;55557;49.220;11.150;2023-03-12T01:54:44;8.57;;;3.97;;
68583;SDS011;55557;49.220;11.150;2023-03-12T01:57:14;8.03;;;5.07;;
68583;SDS011;55557;49.220;11.150;2023-03-12T01:59:43;7.43;;;4.97;;
68583;SDS011;55557;49.220;11.150;2023-03-12T02:02:11;7.90;;;5.10;;
68583;SDS011;55557;49.220;11.150;2023-03-12T02:04:38;5.80;;;4.37;;
68583;SDS011;55557;49.220;11.150;2023-03-12T02:07:07;8.23;;;5.33;;
68583;SDS011;55557;49.220;11.150;2023-03-12T02:09:35;7.27;;;4.93;;
68583;SDS011;55557;49.220;11.150;2023-03-12T02:12:01;7.70;;;4.10;;
68583;SDS011;55557;49.220;11.150;2023-03-12T02:14:27;7.77;;;5.13;;
68583;SDS011;55557;49.220;11.150;2023-03-12T02:16:53;5.57;;;4.33;;
68583;SDS011;55557;49.220;11.150;2023-03-12T02:19:31;5.07;;;4.33;;
68583;SDS011;55557;49.220;11.150;2023-03-12T02:21:59;7.37;;;4.47;;
68583;SDS011;55557;49.220;11.150;2023-03-12T02:24:35;7.90;;;5.37;;
68583;SDS011;55557;49.220;11.150;2023-03-12T02:27:03;6.43;;;4.27;;
68583;SDS011;55557;49.220;11.150;2023-03-12T02:29:31;6.87;;;4.60;;
68583;SDS011;55557;49.220;11.150;2023-03-12T02:31:57;5.30;;;4.27;;
68583;SDS011;55557;49.220;11.150;2023-03-12T02:34:25;8.20;;;4.63;;
68583;SDS011;55557;49.220;11.150;2023-03-12T02:36:51;5.63;;;4.00;;
68583;SDS011;55557;49.220;11.150;2023-03-12T02:39:17;5.27;;;3.97;;
68583;SDS011;55557;49.220;11.150;2023-03-12T02:41:44;6.60;;;4.30;;
68583;SDS011;55557;49.220;11.150;2023-03-12T02:44:18;7.87;;;4.43;;
68583;SDS011;55557;49.220;11.150;2023-03-12T02:46:46;7.10;;;4.47;;
68583;SDS011;55557;49.220;11.150;2023-03-12T02:49:12;6.50;;;4.27;;
68583;SDS011;55557;49.220;11.150;2023-03-12T02:51:39;11.33;;;5.07;;
68583;SDS011;55557;49.220;11.150;2023-03-12T02:54:05;5.10;;;3.97;;
68583;SDS011;55557;49.220;11.150;2023-03-12T02:56:31;9.63;;;5.20;;
68583;SDS011;55557;49.220;11.150;2023-03-12T02:58:58;6.17;;;4.80;;
68583;SDS011;55557;49.220;11.150;2023-03-12T03:01:24;7.77;;;5.30;;
68583;SDS011;55557;49.220;11.150;2023-03-12T03:03:50;10.83;;;4.87;;
68583;SDS011;55557;49.220;11.150;2023-03-12T03:06:19;6.90;;;4.90;;
68583;SDS011;55557;49.220;11.150;2023-03-12T03:08:45;4.43;;;3.93;;
68583;SDS011;55557;49.220;11.150;2023-03-12T03:11:11;7.37;;;4.27;;
68583;SDS011;55557;49.220;11.150;2023-03-12T03:13:37;7.93;;;5.20;;
68583;SDS011;55557;49.220;11.150;2023-03-12T03:16:04;9.60;;;4.77;;
68583;SDS011;55557;49.220;11.150;2023-03-12T03:18:30;9.40;;;4.80;;
68583;SDS011;55557;49.220;11.150;2023-03-12T03:20:57;7.03;;;4.97;;
68583;SDS011;55557;49.220;11.150;2023-03-12T03:23:23;6.63;;;4.93;;
68583;SDS011;55557;49.220;11.150;2023-03-12T03:25:50;6.80;;;4.73;;
68583;SDS011;55557;49.220;11.150;2023-03-12T03:28:17;6.73;;;5.33;;
68583;SDS011;55557;49.220;11.150;2023-03-12T03:30:43;6.90;;;4.93;;
68583;SDS011;55557;49.220;11.150;2023-03-12T03:33:09;9.27;;;5.10;;
68583;SDS011;55557;49.220;11.150;2023-03-12T03:35:35;8.13;;;5.43;;
68583;SDS011;55557;49.220;11.150;2023-03-12T03:38:01;7.30;;;5.53;;
68583;SDS011;55557;49.220;11.150;2023-03-12T03:40:28;7.17;;;5.83;;
68583;SDS011;55557;49.220;11.150;2023-03-12T03:42:54;5.90;;;4.87;;
68583;SDS011;55557;49.220;11.150;2023-03-12T03:45:20;5.73;;;4.60;;
68583;SDS011;55557;49.220;11.150;2023-03-12T03:47:46;5.70;;;4.50;;
68583;SDS011;55557;49.220;11.150;2023-03-12T03:50:12;7.47;;;4.60;;
68583;SDS011;55557;49.220;11.150;2023-03-12T03:52:38;6.90;;;5.23;;
68583;SDS011;55557;49.220;11.150;2023-03-12T03:55:04;7.37;;;4.70;;
68583;SDS011;55557;49.220;11.150;2023-03-12T03:57:30;9.17;;;5.23;;
68583;SDS011;55557;49.220;11.150;2023-03-12T03:59:56;7.67;;;5.27;;
68583;SDS011;55557;49.220;11.150;2023-03-12T04:02:23;8.20;;;5.87;;
68583;SDS011;55557;49.220;11.150;2023-03-12T04:04:49;11.57;;;6.17;;
68583;SDS011;55557;49.220;11.150;2023-03-12T04:07:15;10.57;;;7.27;;
68583;SDS011;55557;49.220;11.150;2023-03-12T04:09:41;9.30;;;5.77;;
68583;SDS011;55557;49.220;11.150;2023-03-12T04:12:07;9.00;;;6.13;;
68583;SDS011;55557;49.220;11.150;2023-03-12T04:14:33;9.73;;;5.63;;
68583;SDS011;55557;49.220;11.150;2023-03-12T04:16:59;9.27;;;5.03;;
68583;SDS011;55557;49.220;11.150;2023-03-12T04:19:25;8.77;;;5.23;;
68583;SDS011;55557;49.220;11.150;2023-03-12T04:21:52;7.07;;;5.07;;
68583;SDS011;55557;49.220;11.150;2023-03-12T04:24:18;6.77;;;4.60;;
68583;SDS011;55557;49.220;11.150;2023-03-12T04:26:44;8.87;;;5.90;;
68583;SDS011;55557;49.220;11.150;2023-03-12T04:29:10;11.27;;;5.00;;
68583;SDS011;55557;49.220;11.150;2023-03-12T04:31:36;10.13;;;5.00;;
68583;SDS011;55557;49.220;11.150;2023-03-12T04:34:02;7.03;;;4.37;;
68583;SDS011;55557;49.220;11.150;2023-03-12T04:36:28;4.43;;;3.77;;
68583;SDS011;55557;49.220;11.150;2023-03-12T04:38:54;7.93;;;4.43;;
68583;SDS011;55557;49.220;11.150;2023-03-12T04:41:21;5.73;;;4.43;;
68583;SDS011;55557;49.220;11.150;2023-03-12T04:43:47;5.47;;;4.47;;
68583;SDS011;55557;49.220;11.150;2023-03-12T04:46:13;8.97;;;4.93;;
68583;SDS011;55557;49.220;11.150;2023-03-12T04:48:39;6.67;;;4.53;;
68583;SDS011;55557;49.220;11.150;2023-03-12T04:51:04;8.90;;;4.87;;
68583;SDS011;55557;49.220;11.150;2023-03-12T04:53:30;10.37;;;6.37;;
68583;SDS011;55557;49.220;11.150;2023-03-12T04:55:56;7.50;;;5.43;;
68583;SDS011;55557;49.220;11.150;2023-03-12T04:58:23;8.37;;;5.70;;
68583;SDS011;55557;49.220;11.150;2023-03-12T05:00:49;9.70;;;6.10;;
68583;SDS011;55557;49.220;11.150;2023-03-12T05:03:16;8.90;;;5.97;;
68583;SDS011;55557;49.220;11.150;2023-03-12T05:05:42;10.83;;;5.80;;
68583;SDS011;55557;49.220;11.150;2023-03-12T05:08:08;6.00;;;4.70;;
68583;SDS011;55557;49.220;11.150;2023-03-12T05:10:34;7.23;;;3.70;;
68583;SDS011;55557;49.220;11.150;2023-03-12T05:13:00;6.37;;;4.70;;
68583;SDS011;55557;49.220;11.150;2023-03-12T05:15:26;8.17;;;4.93;;
68583;SDS011;55557;49.220;11.150;2023-03-12T05:17:52;8.10;;;4.77;;
68583;SDS011;55557;49.220;11.150;2023-03-12T05:20:20;6.13;;;4.27;;
68583;SDS011;55557;49.220;11.150;2023-03-12T05:22:46;7.13;;;4.60;;
68583;SDS011;55557;49.220;11.150;2023-03-12T05:25:12;7.43;;;4.50;;
68583;SDS011;55557;49.220;11.150;2023-03-12T05:27:38;7.03;;;4.73;;
68583;SDS011;55557;49.220;11.150;2023-03-12T05:30:04;8.27;;;4.50;;
68583;SDS011;55557;49.220;11.150;2023-03-12T05:32:31;9.30;;;4.60;;
68583;SDS011;55557;49.220;11.150;2023-03-12T05:34:57;7.00;;;4.33;;
68583;SDS011;55557;49.220;11.150;2023-03-12T05:37:24;9.97;;;4.53;;
68583;SDS011;55557;49.220;11.150;2023-03-12T05:39:50;7.67;;;4.93;;
68583;SDS011;55557;49.220;11.150;2023-03-12T05:42:18;7.10;;;4.47;;
68583;SDS011;55557;49.220;11.150;2023-03-12T05:44:44;7.50;;;5.30;;
68583;SDS011;55557;49.220;11.150;2023-03-12T05:47:10;8.37;;;5.10;;
68583;SDS011;55557;49.220;11.150;2023-03-12T05:49:36;8.57;;;5.27;;
68583;SDS011;55557;49.220;11.150;2023-03-12T05:52:01;5.63;;;4.33;;
68583;SDS011;55557;49.220;11.150;2023-03-12T05:54:27;7.57;;;4.67;;
68583;SDS011;55557;49.220;11.150;2023-03-12T05:56:53;6.97;;;4.27;;
68583;SDS011;55557;49.220;11.150;2023-03-12T05:59:20;6.50;;;4.87;;
68583;SDS011;55557;49.220;11.150;2023-03-12T06:01:46;10.93;;;4.17;;
68583;SDS011;55557;49.220;11.150;2023-03-12T06:04:12;7.00;;;4.53;;
68583;SDS011;55557;49.220;11.150;2023-03-12T06:06:38;6.00;;;3.87;;
68583;SDS011;55557;49.220;11.150;2023-03-12T06:09:04;7.57;;;4.13;;
68583;SDS011;55557;49.220;11.150;2023-03-12T06:11:31;5.43;;;4.30;;
68583;SDS011;55557;49.220;11.150;2023-03-12T06:13:57;8.37;;;5.10;;
68583;SDS011;55557;49.220;11.150;2023-03-12T06:16:24;6.90;;;4.97;;
68583;SDS011;55557;49.220;11.150;2023-03-12T06:18:58;9.40;;;4.70;;
68583;SDS011;55557;49.220;11.150;2023-03-12T06:21:25;8.07;;;4.67;;
68583;SDS011;55557;49.220;11.150;2023-03-12T06:23:51;7.20;;;4.57;;
68583;SDS011;55557;49.220;11.150;2023-03-12T06:26:18;7.77;;;5.37;;
68583;SDS011;55557;49.220;11.150;2023-03-12T06:28:45;6.70;;;5.17;;
68583;SDS011;55557;49.220;11.150;2023-03-12T06:31:11;7.27;;;5.10;;
68583;SDS011;55557;49.220;11.150;2023-03-12T06:33:37;11.60;;;6.20;;
68583;SDS011;55557;49.220;11.150;2023-03-12T06:36:04;9.73;;;6.47;;
68583;SDS011;55557;49.220;11.150;2023-03-12T06:38:30;11.50;;;6.00;;
68583;SDS011;55557;49.220;11.150;2023-03-12T06:41:08;10.70;;;6.10;;
68583;SDS011;55557;49.220;11.150;2023-03-12T06:43:34;7.73;;;5.23;;
68583;SDS011;55557;49.220;11.150;2023-03-12T06:46:01;13.60;;;5.23;;
68583;SDS011;55557;49.220;11.150;2023-03-12T06:48:27;8.63;;;5.30;;
68583;SDS011;55557;49.220;11.150;2023-03-12T06:50:57;7.90;;;5.30;;
68583;SDS011;55557;49.220;11.150;2023-03-12T06:53:24;7.70;;;5.07;;
68583;SDS011;55557;49.220;11.150;2023-03-12T06:55:51;7.13;;;4.87;;
68583;SDS011;55557;49.220;11.150;2023-03-12T06:58:17;11.97;;;5.17;;
68583;SDS011;55557;49.220;11.150;2023-03-12T07:00:44;11.60;;;7.07;;
68583;SDS011;55557;49.220;11.150;2023-03-12T07:03:10;10.30;;;7.57;;
68583;SDS011;55557;49.220;11.150;2023-03-12T07:05:36;9.33;;;6.73;;
68583;SDS011;55557;49.220;11.150;2023-03-12T07:08:02;8.87;;;6.77;;
68583;SDS011;55557;49.220;11.150;2023-03-12T07:10:35;9.50;;;6.60;;
68583;SDS011;55557;49.220;11.150;2023-03-12T07:13:02;9.63;;;5.40;;
68583;SDS011;55557;49.220;11.150;2023-03-12T07:15:28;13.00;;;5.10;;
68583;SDS011;55557;49.220;11.150;2023-03-12T07:17:54;11.00;;;4.57;;
68583;SDS011;55557;49.220;11.150;2023-03-12T07:20:20;6.27;;;4.37;;
68583;SDS011;55557;49.220;11.150;2023-03-12T07:22:46;7.70;;;5.17;;
68583;SDS011;55557;49.220;11.150;2023-03-12T07:25:12;7.47;;;4.57;;
68583;SDS011;55557;49.220;11.150;2023-03-12T07:27:38;13.33;;;4.77;;
68583;SDS011;55557;49.220;11.150;2023-03-12T07:30:05;5.30;;;4.53;;
68583;SDS011;55557;49.220;11.150;2023-03-12T07:32:31;5.53;;;3.77;;
68583;SDS011;55557;49.220;11.150;2023-03-12T07:34:57;5.10;;;3.33;;
68583;SDS011;55557;49.220;11.150;2023-03-12T07:37:23;5.60;;;4.13;;
68583;SDS011;55557;49.220;11.150;2023-03-12T07:39:49;5.13;;;4.07;;
68583;SDS011;55557;49.220;11.150;2023-03-12T07:42:16;5.13;;;4.07;;
68583;SDS011;55557;49.220;11.150;2023-03-12T07:44:42;4.13;;;3.73;;
68583;SDS011;55557;49.220;11.150;2023-03-12T07:47:10;4.50;;;3.33;;
68583;SDS011;55557;49.220;11.150;2023-03-12T07:49:36;4.37;;;3.40;;
68583;SDS011;55557;49.220;11.150;2023-03-12T07:52:02;8.23;;;4.17;;
68583;SDS011;55557;49.220;11.150;2023-03-12T07:54:28;7.87;;;4.60;;
68583;SDS011;55557;49.220;11.150;2023-03-12T07:56:57;6.17;;;3.57;;
68583;SDS011;55557;49.220;11.150;2023-03-12T07:59:24;5.17;;;4.13;;
68583;SDS011;55557;49.220;11.150;2023-03-12T08:01:51;5.87;;;4.27;;
68583;SDS011;55557;49.220;11.150;2023-03-12T08:04:17;6.03;;;4.10;;
68583;SDS011;55557;49.220;11.150;2023-03-12T08:06:43;11.17;;;4.93;;
68583;SDS011;55557;49.220;11.150;2023-03-12T08:09:09;7.27;;;3.67;;
68583;SDS011;55557;49.220;11.150;2023-03-12T08:11:35;5.10;;;3.87;;
68583;SDS011;55557;49.220;11.150;2023-03-12T08:14:02;8.20;;;3.93;;
68583;SDS011;55557;49.220;11.150;2023-03-12T08:16:28;15.73;;;3.60;;
68583;SDS011;55557;49.220;11.150;2023-03-12T08:18:54;5.70;;;4.10;;
68583;SDS011;55557;49.220;11.150;2023-03-12T08:21:20;4.40;;;3.97;;
68583;SDS011;55557;49.220;11.150;2023-03-12T08:23:46;7.77;;;4.30;;
68583;SDS011;55557;49.220;11.150;2023-03-12T08:26:12;4.53;;;3.67;;
68583;SDS011;55557;49.220;11.150;2023-03-12T08:28:38;4.70;;;3.13;;
68583;SDS011;55557;49.220;11.150;2023-03-12T08:31:04;4.17;;;3.10;;
68583;SDS011;55557;49.220;11.150;2023-03-12T08:33:31;5.43;;;2.87;;
68583;SDS011;55557;49.220;11.150;2023-03-12T08:35:56;3.47;;;2.70;;
68583;SDS011;55557;49.220;11.150;2023-03-12T08:38:22;6.60;;;2.90;;
68583;SDS011;55557;49.220;11.150;2023-03-12T08:40:55;4.83;;;3.70;;
68583;SDS011;55557;49.220;11.150;2023-03-12T08:43:22;7.97;;;3.33;;
68583;SDS011;55557;49.220;11.150;2023-03-12T08:45:58;5.33;;;3.13;;
68583;SDS011;55557;49.220;11.150;2023-03-12T08:48:24;5.63;;;2.27;;
68583;SDS011;55557;49.220;11.150;2023-03-12T08:50:50;6.07;;;2.97;;
68583;SDS011;55557;49.220;11.150;2023-03-12T08:53:19;7.27;;;2.73;;
68583;SDS011;55557;49.220;11.150;2023-03-12T08:55:44;5.63;;;2.50;;
68583;SDS011;55557;49.220;11.150;2023-03-12T08:58:10;5.97;;;3.47;;
68583;SDS011;55557;49.220;11.150;2023-03-12T09:00:36;4.83;;;2.53;;
68583;SDS011;55557;49.220;11.150;2023-03-12T09:03:02;3.93;;;2.10;;
68583;SDS011;55557;49.220;11.150;2023-03-12T09:05:28;6.30;;;2.67;;
68583;SDS011;55557;49.220;11.150;2023-03-12T09:07:57;4.50;;;1.90;;
68583;SDS011;55557;49.220;11.150;2023-03-12T09:10:23;2.27;;;1.60;;
68583;SDS011;55557;49.220;11.150;2023-03-12T09:12:51;3.17;;;2.23;;
68583;SDS011;55557;49.220;11.150;2023-03-12T09:15:17;5.90;;;2.07;;
68583;SDS011;55557;49.220;11.150;2023-03-12T09:17:42;4.27;;;2.60;;
68583;SDS011;55557;49.220;11.150;2023-03-12T09:20:09;5.77;;;2.33;;
68583;SDS011;55557;49.220;11.150;2023-03-12T09:22:38;4.30;;;2.30;;
68583;SDS011;55557;49.220;11.150;2023-03-12T09:25:05;2.63;;;2.17;;
68583;SDS011;55557;49.220;11.150;2023-03-12T09:27:38;6.90;;;2.20;;
68583;SDS011;55557;49.220;11.150;2023-03-12T09:30:05;4.17;;;1.97;;
68583;SDS011;55557;49.220;11.150;2023-03-12T09:32:31;4.90;;;2.13;;
68583;SDS011;55557;49.220;11.150;2023-03-12T09:34:57;2.83;;;2.13;;
68583;SDS011;55557;49.220;11.150;2023-03-12T09:37:26;4.13;;;2.17;;
68583;SDS011;55557;49.220;11.150;2023-03-12T09:39:53;2.33;;;2.10;;
68583;SDS011;55557;49.220;11.150;2023-03-12T09:43:02;4.10;;;2.00;;
68583;SDS011;55557;49.220;11.150;2023-03-12T09:45:12;5.47;;;2.40;;
68583;SDS011;55557;49.220;11.150;2023-03-12T09:47:42;7.27;;;2.70;;
68583;SDS011;55557;49.220;11.150;2023-03-12T09:50:16;6.37;;;2.37;;
68583;SDS011;55557;49.220;11.150;2023-03-12T09:52:47;5.40;;;2.53;;
68583;SDS011;55557;49.220;11.150;2023-03-12T09:55:21;2.70;;;2.07;;
68583;SDS011;55557;49.220;11.150;2023-03-12T09:57:48;3.50;;;2.20;;
68583;SDS011;55557;49.220;11.150;2023-03-12T10:00:26;5.10;;;3.13;;
68583;SDS011;55557;49.220;11.150;2023-03-12T10:05:37;7.47;;;2.97;;
68583;SDS011;55557;49.220;11.150;2023-03-12T10:08:12;6.13;;;2.60;;
68583;SDS011;55557;49.220;11.150;2023-03-12T10:10:48;6.67;;;3.43;;
68583;SDS011;55557;49.220;11.150;2023-03-12T10:23:33;10.50;;;4.47;;
68583;SDS011;55557;49.220;11.150;2023-03-12T10:26:06;7.00;;;4.13;;
68583;SDS011;55557;49.220;11.150;2023-03-12T10:28:36;9.43;;;4.30;;
68583;SDS011;55557;49.220;11.150;2023-03-12T10:31:05;6.13;;;3.70;;
68583;SDS011;55557;49.220;11.150;2023-03-12T10:33:40;8.30;;;3.87;;
68583;SDS011;55557;49.220;11.150;2023-03-12T10:36:17;4.63;;;3.10;;
68583;SDS011;55557;49.220;11.150;2023-03-12T10:38:53;6.43;;;3.23;;
68583;SDS011;55557;49.220;11.150;2023-03-12T10:41:21;8.63;;;4.37;;
68583;SDS011;55557;49.220;11.150;2023-03-12T10:43:47;15.83;;;9.20;;
68583;SDS011;55557;49.220;11.150;2023-03-12T10:48:39;6.50;;;3.80;;
68583;SDS011;55557;49.220;11.150;2023-03-12T10:51:09;5.47;;;4.00;;
68583;SDS011;55557;49.220;11.150;2023-03-12T10:53:39;6.70;;;4.63;;
68583;SDS011;55557;49.220;11.150;2023-03-12T10:58:36;7.67;;;4.60;;
68583;SDS011;55557;49.220;11.150;2023-03-12T11:01:03;9.43;;;5.87;;
68583;SDS011;55557;49.220;11.150;2023-03-12T11:03:29;8.50;;;5.33;;
68583;SDS011;55557;49.220;11.150;2023-03-12T11:05:59;11.13;;;5.73;;
68583;SDS011;55557;49.220;11.150;2023-03-12T11:08:27;11.43;;;5.00;;
68583;SDS011;55557;49.220;11.150;2023-03-12T11:10:53;9.30;;;4.80;;
68583;SDS011;55557;49.220;11.150;2023-03-12T11:15:48;7.37;;;4.80;;
68583;SDS011;55557;49.220;11.150;2023-03-12T11:18:32;6.63;;;5.20;;
68583;SDS011;55557;49.220;11.150;2023-03-12T11:23:35;9.37;;;5.80;;
68583;SDS011;55557;49.220;11.150;2023-03-12T11:28:34;8.30;;;5.13;;
68583;SDS011;55557;49.220;11.150;2023-03-12T11:31:01;11.00;;;6.00;;
68583;SDS011;55557;49.220;11.150;2023-03-12T11:33:27;8.50;;;5.90;;
68583;SDS011;55557;49.220;11.150;2023-03-12T11:38:30;10.70;;;6.43;;
68583;SDS011;55557;49.220;11.150;2023-03-12T11:46:06;8.57;;;4.97;;
68583;SDS011;55557;49.220;11.150;2023-03-12T11:58:42;10.07;;;6.10;;
68583;SDS011;55557;49.220;11.150;2023-03-12T12:11:13;8.73;;;5.63;;
68583;SDS011;55557;49.220;11.150;2023-03-12T12:13:51;8.73;;;5.70;;
68583;SDS011;55557;49.220;11.150;2023-03-12T12:31:49;9.00;;;5.90;;
68583;SDS011;55557;49.220;11.150;2023-03-12T12:34:28;10.33;;;5.93;;
68583;SDS011;55557;49.220;11.150;2023-03-12T12:37:19;6.93;;;5.20;;
68583;SDS011;55557;49.220;11.150;2023-03-12T12:39:58;11.07;;;6.60;;
68583;SDS011;55557;49.220;11.150;2023-03-12T12:42:32;9.83;;;6.83;;
68583;SDS011;55557;49.220;11.150;2023-03-12T12:44:59;8.30;;;5.63;;
68583;SDS011;55557;49.220;11.150;2023-03-12T12:47:32;11.67;;;7.60;;
68583;SDS011;55557;49.220;11.150;2023-03-12T12:49:59;9.97;;;6.73;;
68583;SDS011;55557;49.220;11.150;2023-03-12T12:52:25;10.07;;;6.80;;
68583;SDS011;55557;49.220;11.150;2023-03-12T13:02:30;10.63;;;5.83;;
68583;SDS011;55557;49.220;11.150;2023-03-12T13:04:58;9.27;;;6.30;;
68583;SDS011;55557;49.220;11.150;2023-03-12T13:12:51;8.27;;;5.87;;
68583;SDS011;55557;49.220;11.150;2023-03-12T13:15:32;11.23;;;7.07;;
68583;SDS011;55557;49.220;11.150;2023-03-12T13:18:04;10.60;;;7.67;;
68583;SDS011;55557;49.220;11.150;2023-03-12T13:33:35;8.77;;;6.17;;
68583;SDS011;55557;49.220;11.150;2023-03-12T13:36:03;9.37;;;6.50;;
68583;SDS011;55557;49.220;11.150;2023-03-12T13:38:34;10.40;;;6.47;;
68583;SDS011;55557;49.220;11.150;2023-03-12T13:41:00;10.37;;;6.83;;
68583;SDS011;55557;49.220;11.150;2023-03-12T13:46:06;10.53;;;6.57;;
68583;SDS011;55557;49.220;11.150;2023-03-12T13:48:34;11.93;;;7.77;;
68583;SDS011;55557;49.220;11.150;2023-03-12T13:51:06;12.60;;;6.97;;
68583;SDS011;55557;49.220;11.150;2023-03-12T13:53:35;10.37;;;6.83;;
68583;SDS011;55557;49.220;11.150;2023-03-12T13:56:09;14.13;;;8.23;;
68583;SDS011;55557;49.220;11.150;2023-03-12T13:58:40;8.87;;;6.27;;
68583;SDS011;55557;49.220;11.150;2023-03-12T14:01:07;11.60;;;7.60;;
68583;SDS011;55557;49.220;11.150;2023-03-12T14:03:39;8.80;;;6.97;;
68583;SDS011;55557;49.220;11.150;2023-03-12T14:06:10;12.47;;;7.67;;
68583;SDS011;55557;49.220;11.150;2023-03-12T14:08:41;11.00;;;7.70;;
68583;SDS011;55557;49.220;11.150;2023-03-12T14:16:51;13.53;;;8.17;;
68583;SDS011;55557;49.220;11.150;2023-03-12T14:19:22;14.17;;;9.17;;
68583;SDS011;55557;49.220;11.150;2023-03-12T14:21:49;13.70;;;8.80;;
68583;SDS011;55557;49.220;11.150;2023-03-12T14:24:29;8.93;;;7.27;;
68583;SDS011;55557;49.220;11.150;2023-03-12T14:26:56;11.90;;;7.17;;
68583;SDS011;55557;49.220;11.150;2023-03-12T14:29:34;16.70;;;10.33;;
68583;SDS011;55557;49.220;11.150;2023-03-12T14:32:02;15.00;;;9.13;;
68583;SDS011;55557;49.220;11.150;2023-03-12T14:34:31;11.43;;;7.23;;
68583;SDS011;55557;49.220;11.150;2023-03-12T14:37:02;16.00;;;9.13;;
68583;SDS011;55557;49.220;11.150;2023-03-12T14:39:43;10.03;;;6.57;;
68583;SDS011;55557;49.220;11.150;2023-03-12T14:42:10;14.97;;;8.70;;
68583;SDS011;55557;49.220;11.150;2023-03-12T14:44:51;6.23;;;4.63;;
68583;SDS011;55557;49.220;11.150;2023-03-12T14:47:18;9.87;;;6.10;;
68583;SDS011;55557;49.220;11.150;2023-03-12T14:49:44;6.13;;;4.53;;
68583;SDS011;55557;49.220;11.150;2023-03-12T14:52:11;8.97;;;5.80;;
68583;SDS011;55557;49.220;11.150;2023-03-12T14:54:37;8.63;;;6.37;;
68583;SDS011;55557;49.220;11.150;2023-03-12T14:57:04;9.60;;;6.43;;
68583;SDS011;55557;49.220;11.150;2023-03-12T14:59:32;7.47;;;5.10;;
68583;SDS011;55557;49.220;11.150;2023-03-12T15:02:20;7.50;;;4.53;;
68583;SDS011;55557;49.220;11.150;2023-03-12T15:04:46;13.87;;;7.70;;
68583;SDS011;55557;49.220;11.150;2023-03-12T15:07:13;10.67;;;7.23;;
68583;SDS011;55557;49.220;11.150;2023-03-12T15:09:41;9.33;;;5.97;;
68583;SDS011;55557;49.220;11.150;2023-03-12T15:12:16;8.53;;;5.53;;
68583;SDS011;55557;49.220;11.150;2023-03-12T15:14:43;8.37;;;4.73;;
68583;SDS011;55557;49.220;11.150;2023-03-12T15:17:13;7.03;;;4.83;;
68583;SDS011;55557;49.220;11.150;2023-03-12T15:19:40;8.70;;;5.40;;
68583;SDS011;55557;49.220;11.150;2023-03-12T15:22:19;5.07;;;4.43;;
68583;SDS011;55557;49.220;11.150;2023-03-12T15:24:47;7.53;;;4.20;;
68583;SDS011;55557;49.220;11.150;2023-03-12T15:29:53;7.07;;;4.20;;
68583;SDS011;55557;49.220;11.150;2023-03-12T15:32:20;5.20;;;3.87;;
68583;SDS011;55557;49.220;11.150;2023-03-12T15:34:48;7.37;;;4.50;;
68583;SDS011;55557;49.220;11.150;2023-03-12T15:37:33;9.40;;;4.90;;
68583;SDS011;55557;49.220;11.150;2023-03-12T15:40:24;6.60;;;4.30;;
68583;SDS011;55557;49.220;11.150;2023-03-12T15:42:50;9.50;;;3.87;;
68583;SDS011;55557;49.220;11.150;2023-03-12T15:45:22;9.47;;;4.20;;
68583;SDS011;55557;49.220;11.150;2023-03-12T15:47:50;7.70;;;4.63;;
68583;SDS011;55557;49.220;11.150;2023-03-12T15:50:18;7.83;;;4.50;;
68583;SDS011;55557;49.220;11.150;2023-03-12T15:52:58;18.97;;;8.73;;
68583;SDS011;55557;49.220;11.150;2023-03-12T15:55:26;16.33;;;9.80;;
68583;SDS011;55557;49.220;11.150;2023-03-12T15:57:53;10.37;;;6.07;;
68583;SDS011;55557;49.220;11.150;2023-03-12T16:00:21;4.23;;;3.77;;
68583;SDS011;55557;49.220;11.150;2023-03-12T16:02:51;7.77;;;5.67;;
68583;SDS011;55557;49.220;11.150;2023-03-12T16:05:24;5.77;;;3.73;;
68583;SDS011;55557;49.220;11.150;2023-03-12T16:07:50;6.77;;;4.40;;
68583;SDS011;55557;49.220;11.150;2023-03-12T16:10:17;9.63;;;4.40;;
68583;SDS011;55557;49.220;11.150;2023-03-12T16:12:43;7.53;;;3.73;;
68583;SDS011;55557;49.220;11.150;2023-03-12T16:15:17;7.13;;;4.10;;
68583;SDS011;55557;49.220;11.150;2023-03-12T16:17:45;6.57;;;4.23;;
68583;SDS011;55557;49.220;11.150;2023-03-12T16:20:12;5.33;;;4.07;;
68583;SDS011;55557;49.220;11.150;2023-03-12T16:22:39;8.80;;;3.10;;
68583;SDS011;55557;49.220;11.150;2023-03-12T16:25:05;7.30;;;3.90;;